sensor_id;sensor_type;location;lat;lon;timestamp;P1;durP1;ratioP1;P2;durP2;ratioP2
73593;SDS011;64760;53.404;23.498;2022-12-07T00:01:07;6.60;;;3.47;;
73593;SDS011;64760;53.404;23.498;2022-12-07T00:03:35;5.50;;;3.25;;
73593;SDS011;64760;53.404;23.498;2022-12-07T00:06:03;7.30;;;3.25;;
73593;SDS011;64760;53.404;23.498;2022-12-07T00:08:31;4.90;;;2.60;;
73593;SDS011;64760;53.404;23.498;2022-12-07T00:11:05;6.30;;;3.30;;
73593;SDS011;64760;53.404;23.498;2022-12-07T00:13:43;5.97;;;3.60;;
73593;SDS011;64760;53.404;23.498;2022-12-07T00:16:14;8.45;;;3.42;;
73593;SDS011;64760;53.404;23.498;2022-12-07T00:18:42;8.82;;;4.18;;
73593;SDS011;64760;53.404;23.498;2022-12-07T00:21:11;6.18;;;2.50;;
73593;SDS011;64760;53.404;23.498;2022-12-07T00:23:37;7.55;;;3.72;;
73593;SDS011;64760;53.404;23.498;2022-12-07T00:26:08;10.43;;;4.63;;
73593;SDS011;64760;53.404;23.498;2022-12-07T00:28:36;6.47;;;3.83;;
73593;SDS011;64760;53.404;23.498;2022-12-07T00:31:06;6.22;;;3.60;;
73593;SDS011;64760;53.404;23.498;2022-12-07T00:33:34;6.95;;;4.00;;
73593;SDS011;64760;53.404;23.498;2022-12-07T00:36:02;6.40;;;3.20;;
73593;SDS011;64760;53.404;23.498;2022-12-07T00:38:30;5.93;;;3.40;;
73593;SDS011;64760;53.404;23.498;2022-12-07T00:40:58;5.50;;;2.88;;
73593;SDS011;64760;53.404;23.498;2022-12-07T00:46:26;10.98;;;3.67;;
73593;SDS011;64760;53.404;23.498;2022-12-07T00:48:52;6.45;;;3.22;;
73593;SDS011;64760;53.404;23.498;2022-12-07T00:51:22;7.72;;;3.75;;
73593;SDS011;64760;53.404;23.498;2022-12-07T00:53:50;7.35;;;3.45;;
73593;SDS011;64760;53.404;23.498;2022-12-07T00:56:18;6.75;;;3.90;;
73593;SDS011;64760;53.404;23.498;2022-12-07T00:58:49;6.93;;;2.92;;
73593;SDS011;64760;53.404;23.498;2022-12-07T01:01:17;5.40;;;2.58;;
73593;SDS011;64760;53.404;23.498;2022-12-07T01:03:43;6.60;;;3.35;;
73593;SDS011;64760;53.404;23.498;2022-12-07T01:06:10;7.78;;;3.63;;
73593;SDS011;64760;53.404;23.498;2022-12-07T01:08:40;5.18;;;2.63;;
73593;SDS011;64760;53.404;23.498;2022-12-07T01:11:07;3.95;;;2.35;;
73593;SDS011;64760;53.404;23.498;2022-12-07T01:13:35;5.07;;;2.95;;
73593;SDS011;64760;53.404;23.498;2022-12-07T01:16:03;6.80;;;3.15;;
73593;SDS011;64760;53.404;23.498;2022-12-07T01:18:32;5.82;;;2.72;;
73593;SDS011;64760;53.404;23.498;2022-12-07T01:21:01;7.40;;;3.38;;
73593;SDS011;64760;53.404;23.498;2022-12-07T01:29:35;6.75;;;3.20;;
73593;SDS011;64760;53.404;23.498;2022-12-07T01:32:01;8.77;;;4.28;;
73593;SDS011;64760;53.404;23.498;2022-12-07T01:34:27;8.10;;;4.30;;
73593;SDS011;64760;53.404;23.498;2022-12-07T01:36:54;7.57;;;3.72;;
73593;SDS011;64760;53.404;23.498;2022-12-07T01:39:20;7.63;;;4.25;;
73593;SDS011;64760;53.404;23.498;2022-12-07T01:41:46;6.28;;;3.70;;
73593;SDS011;64760;53.404;23.498;2022-12-07T01:46:59;6.60;;;3.80;;
73593;SDS011;64760;53.404;23.498;2022-12-07T01:52:44;6.88;;;3.13;;
73593;SDS011;64760;53.404;23.498;2022-12-07T01:54:51;4.85;;;2.65;;
73593;SDS011;64760;53.404;23.498;2022-12-07T01:57:23;5.43;;;3.05;;
73593;SDS011;64760;53.404;23.498;2022-12-07T01:59:51;4.72;;;3.10;;
73593;SDS011;64760;53.404;23.498;2022-12-07T02:02:20;5.97;;;3.30;;
73593;SDS011;64760;53.404;23.498;2022-12-07T02:04:51;8.18;;;2.97;;
73593;SDS011;64760;53.404;23.498;2022-12-07T02:12:12;4.30;;;2.45;;
73593;SDS011;64760;53.404;23.498;2022-12-07T02:14:38;5.40;;;2.90;;
73593;SDS011;64760;53.404;23.498;2022-12-07T02:29:02;6.72;;;2.75;;
73593;SDS011;64760;53.404;23.498;2022-12-07T02:31:33;6.43;;;3.53;;
73593;SDS011;64760;53.404;23.498;2022-12-07T02:34:07;5.70;;;3.10;;
73593;SDS011;64760;53.404;23.498;2022-12-07T02:36:42;7.75;;;2.95;;
73593;SDS011;64760;53.404;23.498;2022-12-07T02:39:58;7.28;;;3.60;;
73593;SDS011;64760;53.404;23.498;2022-12-07T02:42:09;9.65;;;3.83;;
73593;SDS011;64760;53.404;23.498;2022-12-07T02:44:42;7.85;;;3.75;;
73593;SDS011;64760;53.404;23.498;2022-12-07T02:47:11;8.00;;;3.25;;
73593;SDS011;64760;53.404;23.498;2022-12-07T02:49:40;5.80;;;2.95;;
73593;SDS011;64760;53.404;23.498;2022-12-07T02:52:07;5.75;;;3.28;;
73593;SDS011;64760;53.404;23.498;2022-12-07T02:54:33;4.85;;;2.70;;
73593;SDS011;64760;53.404;23.498;2022-12-07T03:10:31;8.23;;;3.10;;
73593;SDS011;64760;53.404;23.498;2022-12-07T03:16:50;6.55;;;3.20;;
73593;SDS011;64760;53.404;23.498;2022-12-07T03:19:21;8.52;;;3.08;;
73593;SDS011;64760;53.404;23.498;2022-12-07T03:22:00;6.80;;;3.38;;
73593;SDS011;64760;53.404;23.498;2022-12-07T03:24:31;7.15;;;3.40;;
73593;SDS011;64760;53.404;23.498;2022-12-07T03:27:29;7.10;;;3.55;;
73593;SDS011;64760;53.404;23.498;2022-12-07T03:30:07;5.32;;;3.03;;
73593;SDS011;64760;53.404;23.498;2022-12-07T03:40:33;5.90;;;3.42;;
73593;SDS011;64760;53.404;23.498;2022-12-07T03:43:05;6.85;;;3.10;;
73593;SDS011;64760;53.404;23.498;2022-12-07T03:45:42;7.15;;;3.45;;
73593;SDS011;64760;53.404;23.498;2022-12-07T03:53:59;8.20;;;3.22;;
73593;SDS011;64760;53.404;23.498;2022-12-07T03:56:33;6.53;;;3.88;;
73593;SDS011;64760;53.404;23.498;2022-12-07T03:59:00;8.73;;;3.63;;
73593;SDS011;64760;53.404;23.498;2022-12-07T04:01:27;7.70;;;3.42;;
73593;SDS011;64760;53.404;23.498;2022-12-07T04:03:53;7.50;;;3.28;;
73593;SDS011;64760;53.404;23.498;2022-12-07T04:06:19;6.47;;;3.45;;
73593;SDS011;64760;53.404;23.498;2022-12-07T04:08:45;6.50;;;2.95;;
73593;SDS011;64760;53.404;23.498;2022-12-07T04:11:11;9.18;;;3.38;;
73593;SDS011;64760;53.404;23.498;2022-12-07T04:13:38;6.75;;;3.33;;
73593;SDS011;64760;53.404;23.498;2022-12-07T04:16:24;8.43;;;3.45;;
73593;SDS011;64760;53.404;23.498;2022-12-07T04:18:52;6.50;;;3.17;;
73593;SDS011;64760;53.404;23.498;2022-12-07T04:21:18;7.50;;;3.63;;
73593;SDS011;64760;53.404;23.498;2022-12-07T04:23:45;11.73;;;5.53;;
73593;SDS011;64760;53.404;23.498;2022-12-07T04:26:11;14.55;;;7.03;;
73593;SDS011;64760;53.404;23.498;2022-12-07T04:28:37;15.40;;;7.50;;
73593;SDS011;64760;53.404;23.498;2022-12-07T04:31:03;17.42;;;8.20;;
73593;SDS011;64760;53.404;23.498;2022-12-07T04:33:30;20.25;;;9.73;;
73593;SDS011;64760;53.404;23.498;2022-12-07T04:35:56;17.52;;;8.80;;
73593;SDS011;64760;53.404;23.498;2022-12-07T04:38:23;14.50;;;6.38;;
73593;SDS011;64760;53.404;23.498;2022-12-07T04:40:49;12.48;;;5.85;;
73593;SDS011;64760;53.404;23.498;2022-12-07T04:43:15;13.27;;;6.80;;
73593;SDS011;64760;53.404;23.498;2022-12-07T04:45:48;10.48;;;5.68;;
73593;SDS011;64760;53.404;23.498;2022-12-07T04:48:17;13.13;;;6.28;;
73593;SDS011;64760;53.404;23.498;2022-12-07T04:50:47;11.45;;;5.68;;
73593;SDS011;64760;53.404;23.498;2022-12-07T04:53:15;12.45;;;5.13;;
73593;SDS011;64760;53.404;23.498;2022-12-07T04:56:00;7.80;;;4.75;;
73593;SDS011;64760;53.404;23.498;2022-12-07T04:58:26;10.40;;;4.80;;
73593;SDS011;64760;53.404;23.498;2022-12-07T05:00:56;8.73;;;3.97;;
73593;SDS011;64760;53.404;23.498;2022-12-07T05:03:22;7.18;;;4.20;;
73593;SDS011;64760;53.404;23.498;2022-12-07T05:05:48;7.88;;;3.97;;
73593;SDS011;64760;53.404;23.498;2022-12-07T05:08:14;13.35;;;6.20;;
73593;SDS011;64760;53.404;23.498;2022-12-07T05:10:41;16.98;;;8.50;;
73593;SDS011;64760;53.404;23.498;2022-12-07T05:13:07;12.60;;;7.85;;
73593;SDS011;64760;53.404;23.498;2022-12-07T05:15:33;8.15;;;5.35;;
73593;SDS011;64760;53.404;23.498;2022-12-07T05:17:59;9.43;;;5.28;;
73593;SDS011;64760;53.404;23.498;2022-12-07T05:20:26;8.73;;;3.90;;
73593;SDS011;64760;53.404;23.498;2022-12-07T05:22:52;9.02;;;4.53;;
73593;SDS011;64760;53.404;23.498;2022-12-07T05:25:20;4.50;;;1.98;;
73593;SDS011;64760;53.404;23.498;2022-12-07T05:27:46;9.02;;;4.03;;
73593;SDS011;64760;53.404;23.498;2022-12-07T05:30:13;9.32;;;4.25;;
73593;SDS011;64760;53.404;23.498;2022-12-07T05:32:39;8.57;;;3.72;;
73593;SDS011;64760;53.404;23.498;2022-12-07T05:35:05;12.38;;;4.68;;
73593;SDS011;64760;53.404;23.498;2022-12-07T05:37:32;9.23;;;4.40;;
73593;SDS011;64760;53.404;23.498;2022-12-07T05:39:58;8.38;;;4.50;;
73593;SDS011;64760;53.404;23.498;2022-12-07T05:42:24;7.53;;;3.90;;
73593;SDS011;64760;53.404;23.498;2022-12-07T05:44:50;9.27;;;4.38;;
73593;SDS011;64760;53.404;23.498;2022-12-07T05:47:20;7.88;;;4.47;;
73593;SDS011;64760;53.404;23.498;2022-12-07T05:49:49;6.65;;;3.85;;
73593;SDS011;64760;53.404;23.498;2022-12-07T05:52:15;9.43;;;4.13;;
73593;SDS011;64760;53.404;23.498;2022-12-07T05:54:42;8.48;;;3.85;;
73593;SDS011;64760;53.404;23.498;2022-12-07T05:57:08;8.60;;;3.88;;
73593;SDS011;64760;53.404;23.498;2022-12-07T05:59:36;9.50;;;4.07;;
73593;SDS011;64760;53.404;23.498;2022-12-07T06:02:06;8.25;;;4.47;;
73593;SDS011;64760;53.404;23.498;2022-12-07T06:04:40;8.32;;;4.20;;
73593;SDS011;64760;53.404;23.498;2022-12-07T06:07:08;9.75;;;4.28;;
73593;SDS011;64760;53.404;23.498;2022-12-07T06:12:03;7.45;;;3.65;;
73593;SDS011;64760;53.404;23.498;2022-12-07T06:15:08;9.80;;;4.75;;
73593;SDS011;64760;53.404;23.498;2022-12-07T06:17:36;16.20;;;5.32;;
73593;SDS011;64760;53.404;23.498;2022-12-07T06:20:03;11.65;;;5.43;;
73593;SDS011;64760;53.404;23.498;2022-12-07T06:22:29;7.95;;;4.43;;
73593;SDS011;64760;53.404;23.498;2022-12-07T06:24:55;11.68;;;4.60;;
73593;SDS011;64760;53.404;23.498;2022-12-07T06:27:21;8.15;;;5.40;;
73593;SDS011;64760;53.404;23.498;2022-12-07T06:29:48;9.32;;;4.70;;
73593;SDS011;64760;53.404;23.498;2022-12-07T06:32:14;10.38;;;4.20;;
73593;SDS011;64760;53.404;23.498;2022-12-07T06:34:59;13.27;;;6.13;;
73593;SDS011;64760;53.404;23.498;2022-12-07T06:37:25;10.20;;;4.95;;
73593;SDS011;64760;53.404;23.498;2022-12-07T06:39:51;12.52;;;5.82;;
73593;SDS011;64760;53.404;23.498;2022-12-07T06:42:17;16.10;;;7.07;;
73593;SDS011;64760;53.404;23.498;2022-12-07T06:44:44;14.25;;;6.95;;
73593;SDS011;64760;53.404;23.498;2022-12-07T06:47:10;9.63;;;4.70;;
73593;SDS011;64760;53.404;23.498;2022-12-07T06:49:37;10.50;;;5.03;;
73593;SDS011;64760;53.404;23.498;2022-12-07T06:52:03;9.27;;;5.03;;
73593;SDS011;64760;53.404;23.498;2022-12-07T06:54:30;12.85;;;4.80;;
73593;SDS011;64760;53.404;23.498;2022-12-07T06:56:57;11.32;;;5.07;;
73593;SDS011;64760;53.404;23.498;2022-12-07T06:59:23;6.55;;;4.00;;
73593;SDS011;64760;53.404;23.498;2022-12-07T07:01:49;10.50;;;5.20;;
73593;SDS011;64760;53.404;23.498;2022-12-07T07:04:15;11.15;;;6.88;;
73593;SDS011;64760;53.404;23.498;2022-12-07T07:06:42;13.48;;;7.18;;
73593;SDS011;64760;53.404;23.498;2022-12-07T07:09:09;12.95;;;7.75;;
73593;SDS011;64760;53.404;23.498;2022-12-07T07:11:35;8.98;;;5.20;;
73593;SDS011;64760;53.404;23.498;2022-12-07T07:14:01;10.48;;;5.93;;
73593;SDS011;64760;53.404;23.498;2022-12-07T07:16:28;11.30;;;5.72;;
73593;SDS011;64760;53.404;23.498;2022-12-07T07:18:56;12.50;;;6.88;;
73593;SDS011;64760;53.404;23.498;2022-12-07T07:21:23;10.00;;;6.10;;
73593;SDS011;64760;53.404;23.498;2022-12-07T07:23:49;10.23;;;4.82;;
73593;SDS011;64760;53.404;23.498;2022-12-07T07:26:15;6.30;;;3.92;;
73593;SDS011;64760;53.404;23.498;2022-12-07T07:28:42;9.27;;;4.53;;
73593;SDS011;64760;53.404;23.498;2022-12-07T07:31:08;8.43;;;4.03;;
73593;SDS011;64760;53.404;23.498;2022-12-07T07:33:34;9.40;;;3.80;;
73593;SDS011;64760;53.404;23.498;2022-12-07T07:36:00;7.97;;;3.22;;
73593;SDS011;64760;53.404;23.498;2022-12-07T07:38:27;6.85;;;3.40;;
73593;SDS011;64760;53.404;23.498;2022-12-07T07:40:53;8.73;;;3.60;;
73593;SDS011;64760;53.404;23.498;2022-12-07T07:43:19;6.38;;;3.40;;
73593;SDS011;64760;53.404;23.498;2022-12-07T07:45:45;6.78;;;3.15;;
73593;SDS011;64760;53.404;23.498;2022-12-07T07:48:11;5.60;;;3.60;;
73593;SDS011;64760;53.404;23.498;2022-12-07T07:50:38;8.32;;;3.60;;
73593;SDS011;64760;53.404;23.498;2022-12-07T07:53:04;7.03;;;3.35;;
73593;SDS011;64760;53.404;23.498;2022-12-07T07:55:30;8.57;;;3.80;;
73593;SDS011;64760;53.404;23.498;2022-12-07T07:57:56;7.78;;;3.42;;
73593;SDS011;64760;53.404;23.498;2022-12-07T08:00:23;9.10;;;3.70;;
73593;SDS011;64760;53.404;23.498;2022-12-07T08:02:49;7.07;;;3.47;;
73593;SDS011;64760;53.404;23.498;2022-12-07T08:05:16;7.40;;;3.92;;
73593;SDS011;64760;53.404;23.498;2022-12-07T08:07:44;9.57;;;4.22;;
73593;SDS011;64760;53.404;23.498;2022-12-07T08:10:11;7.80;;;3.95;;
73593;SDS011;64760;53.404;23.498;2022-12-07T08:12:40;5.18;;;3.13;;
73593;SDS011;64760;53.404;23.498;2022-12-07T08:15:28;6.80;;;3.72;;
73593;SDS011;64760;53.404;23.498;2022-12-07T08:17:56;8.45;;;4.15;;
73593;SDS011;64760;53.404;23.498;2022-12-07T08:20:22;6.35;;;3.10;;
73593;SDS011;64760;53.404;23.498;2022-12-07T08:22:49;10.68;;;4.32;;
73593;SDS011;64760;53.404;23.498;2022-12-07T08:25:15;6.93;;;3.90;;
73593;SDS011;64760;53.404;23.498;2022-12-07T08:27:41;9.30;;;5.65;;
73593;SDS011;64760;53.404;23.498;2022-12-07T08:30:07;9.63;;;4.60;;
73593;SDS011;64760;53.404;23.498;2022-12-07T08:32:34;9.23;;;3.83;;
73593;SDS011;64760;53.404;23.498;2022-12-07T08:35:00;9.27;;;3.55;;
73593;SDS011;64760;53.404;23.498;2022-12-07T08:37:27;7.00;;;3.92;;
73593;SDS011;64760;53.404;23.498;2022-12-07T08:39:54;10.30;;;4.40;;
73593;SDS011;64760;53.404;23.498;2022-12-07T08:42:22;8.23;;;3.45;;
73593;SDS011;64760;53.404;23.498;2022-12-07T08:44:53;9.98;;;4.20;;
73593;SDS011;64760;53.404;23.498;2022-12-07T08:47:20;7.97;;;4.05;;
73593;SDS011;64760;53.404;23.498;2022-12-07T08:49:47;9.57;;;4.22;;
73593;SDS011;64760;53.404;23.498;2022-12-07T08:52:15;8.68;;;4.88;;
73593;SDS011;64760;53.404;23.498;2022-12-07T08:54:41;9.02;;;4.03;;
73593;SDS011;64760;53.404;23.498;2022-12-07T08:57:08;7.68;;;4.18;;
73593;SDS011;64760;53.404;23.498;2022-12-07T08:59:35;7.15;;;3.97;;
73593;SDS011;64760;53.404;23.498;2022-12-07T09:02:05;9.27;;;4.45;;
73593;SDS011;64760;53.404;23.498;2022-12-07T09:04:31;9.30;;;5.60;;
73593;SDS011;64760;53.404;23.498;2022-12-07T09:06:58;10.02;;;5.63;;
73593;SDS011;64760;53.404;23.498;2022-12-07T09:09:24;11.07;;;6.32;;
73593;SDS011;64760;53.404;23.498;2022-12-07T09:11:50;12.65;;;6.28;;
73593;SDS011;64760;53.404;23.498;2022-12-07T09:14:16;15.52;;;8.13;;
73593;SDS011;64760;53.404;23.498;2022-12-07T09:16:43;14.77;;;7.43;;
73593;SDS011;64760;53.404;23.498;2022-12-07T09:19:09;15.57;;;7.45;;
73593;SDS011;64760;53.404;23.498;2022-12-07T09:21:36;12.02;;;7.05;;
73593;SDS011;64760;53.404;23.498;2022-12-07T09:24:02;17.33;;;8.82;;
73593;SDS011;64760;53.404;23.498;2022-12-07T09:26:28;19.77;;;9.70;;
73593;SDS011;64760;53.404;23.498;2022-12-07T09:28:54;25.10;;;10.65;;
73593;SDS011;64760;53.404;23.498;2022-12-07T09:31:21;19.20;;;8.95;;
73593;SDS011;64760;53.404;23.498;2022-12-07T09:33:52;24.90;;;9.32;;
73593;SDS011;64760;53.404;23.498;2022-12-07T09:36:20;20.33;;;10.77;;
73593;SDS011;64760;53.404;23.498;2022-12-07T09:38:46;17.77;;;9.30;;
73593;SDS011;64760;53.404;23.498;2022-12-07T09:41:13;28.48;;;11.30;;
73593;SDS011;64760;53.404;23.498;2022-12-07T09:43:41;18.90;;;8.52;;
73593;SDS011;64760;53.404;23.498;2022-12-07T09:46:08;21.40;;;10.80;;
73593;SDS011;64760;53.404;23.498;2022-12-07T09:48:39;20.38;;;10.82;;
73593;SDS011;64760;53.404;23.498;2022-12-07T09:51:13;21.65;;;10.15;;
73593;SDS011;64760;53.404;23.498;2022-12-07T09:53:42;27.58;;;14.05;;
73593;SDS011;64760;53.404;23.498;2022-12-07T09:56:11;25.58;;;12.18;;
73593;SDS011;64760;53.404;23.498;2022-12-07T09:58:42;16.65;;;7.90;;
73593;SDS011;64760;53.404;23.498;2022-12-07T10:03:51;24.17;;;14.23;;
73593;SDS011;64760;53.404;23.498;2022-12-07T10:06:20;17.23;;;8.40;;
73593;SDS011;64760;53.404;23.498;2022-12-07T10:08:46;16.75;;;9.00;;
73593;SDS011;64760;53.404;23.498;2022-12-07T10:11:15;14.45;;;7.18;;
73593;SDS011;64760;53.404;23.498;2022-12-07T10:13:42;18.95;;;9.13;;
73593;SDS011;64760;53.404;23.498;2022-12-07T10:18:53;21.27;;;10.43;;
73593;SDS011;64760;53.404;23.498;2022-12-07T10:21:21;17.42;;;9.77;;
73593;SDS011;64760;53.404;23.498;2022-12-07T10:29:16;15.85;;;8.80;;
73593;SDS011;64760;53.404;23.498;2022-12-07T10:31:49;20.75;;;9.48;;
73593;SDS011;64760;53.404;23.498;2022-12-07T10:34:22;21.25;;;10.48;;
73593;SDS011;64760;53.404;23.498;2022-12-07T10:45:13;11.23;;;6.60;;
73593;SDS011;64760;53.404;23.498;2022-12-07T11:01:33;18.50;;;11.32;;
73593;SDS011;64760;53.404;23.498;2022-12-07T11:07:34;16.52;;;9.23;;
73593;SDS011;64760;53.404;23.498;2022-12-07T11:19:24;64.38;;;33.80;;
73593;SDS011;64760;53.404;23.498;2022-12-07T11:21:57;19.73;;;8.68;;
73593;SDS011;64760;53.404;23.498;2022-12-07T11:24:50;26.17;;;12.80;;
73593;SDS011;64760;53.404;23.498;2022-12-07T11:38:17;20.40;;;11.45;;
73593;SDS011;64760;53.404;23.498;2022-12-07T11:40:49;21.92;;;13.40;;
73593;SDS011;64760;53.404;23.498;2022-12-07T11:43:20;17.83;;;10.75;;
73593;SDS011;64760;53.404;23.498;2022-12-07T11:45:57;15.80;;;7.65;;
73593;SDS011;64760;53.404;23.498;2022-12-07T11:48:33;16.98;;;10.38;;
73593;SDS011;64760;53.404;23.498;2022-12-07T11:51:06;17.80;;;9.45;;
73593;SDS011;64760;53.404;23.498;2022-12-07T11:53:38;14.77;;;7.40;;
73593;SDS011;64760;53.404;23.498;2022-12-07T11:56:16;13.02;;;7.97;;
73593;SDS011;64760;53.404;23.498;2022-12-07T12:03:56;24.55;;;11.68;;
73593;SDS011;64760;53.404;23.498;2022-12-07T12:06:28;11.02;;;5.88;;
73593;SDS011;64760;53.404;23.498;2022-12-07T12:20:29;17.05;;;9.65;;
73593;SDS011;64760;53.404;23.498;2022-12-07T12:26:01;9.90;;;5.80;;
73593;SDS011;64760;53.404;23.498;2022-12-07T12:28:38;17.58;;;8.68;;
73593;SDS011;64760;53.404;23.498;2022-12-07T12:33:47;12.60;;;8.05;;
73593;SDS011;64760;53.404;23.498;2022-12-07T12:36:25;9.55;;;4.93;;
73593;SDS011;64760;53.404;23.498;2022-12-07T12:51:56;16.15;;;7.63;;
73593;SDS011;64760;53.404;23.498;2022-12-07T12:54:30;21.33;;;10.65;;
73593;SDS011;64760;53.404;23.498;2022-12-07T13:13:35;11.00;;;6.15;;
73593;SDS011;64760;53.404;23.498;2022-12-07T13:28:50;14.45;;;4.97;;
73593;SDS011;64760;53.404;23.498;2022-12-07T13:31:38;8.75;;;4.22;;
73593;SDS011;64760;53.404;23.498;2022-12-07T13:34:05;10.88;;;6.35;;
73593;SDS011;64760;53.404;23.498;2022-12-07T13:37:00;6.88;;;5.10;;
73593;SDS011;64760;53.404;23.498;2022-12-07T13:39:34;15.48;;;7.80;;
73593;SDS011;64760;53.404;23.498;2022-12-07T13:42:15;9.65;;;5.35;;
73593;SDS011;64760;53.404;23.498;2022-12-07T13:44:51;9.10;;;4.63;;
73593;SDS011;64760;53.404;23.498;2022-12-07T13:49:49;12.55;;;6.30;;
73593;SDS011;64760;53.404;23.498;2022-12-07T13:54:57;8.02;;;4.63;;
73593;SDS011;64760;53.404;23.498;2022-12-07T13:57:26;9.93;;;5.53;;
73593;SDS011;64760;53.404;23.498;2022-12-07T13:59:57;18.70;;;9.40;;
73593;SDS011;64760;53.404;23.498;2022-12-07T14:02:28;28.63;;;14.35;;
73593;SDS011;64760;53.404;23.498;2022-12-07T14:05:06;11.65;;;6.88;;
73593;SDS011;64760;53.404;23.498;2022-12-07T14:10:24;17.20;;;8.80;;
73593;SDS011;64760;53.404;23.498;2022-12-07T14:12:59;27.42;;;14.57;;
73593;SDS011;64760;53.404;23.498;2022-12-07T14:15:33;24.23;;;13.13;;
73593;SDS011;64760;53.404;23.498;2022-12-07T14:18:01;12.23;;;6.95;;
73593;SDS011;64760;53.404;23.498;2022-12-07T14:20:40;23.75;;;12.50;;
73593;SDS011;64760;53.404;23.498;2022-12-07T14:23:21;37.35;;;19.70;;
73593;SDS011;64760;53.404;23.498;2022-12-07T14:25:51;31.25;;;17.67;;
73593;SDS011;64760;53.404;23.498;2022-12-07T14:28:34;23.27;;;12.70;;
73593;SDS011;64760;53.404;23.498;2022-12-07T14:31:02;13.25;;;7.15;;
73593;SDS011;64760;53.404;23.498;2022-12-07T14:33:29;17.27;;;8.93;;
73593;SDS011;64760;53.404;23.498;2022-12-07T14:35:56;18.95;;;10.65;;
73593;SDS011;64760;53.404;23.498;2022-12-07T14:38:24;40.38;;;17.38;;
73593;SDS011;64760;53.404;23.498;2022-12-07T14:40:51;64.93;;;28.23;;
73593;SDS011;64760;53.404;23.498;2022-12-07T14:43:19;73.47;;;30.75;;
73593;SDS011;64760;53.404;23.498;2022-12-07T14:45:46;44.28;;;22.30;;
73593;SDS011;64760;53.404;23.498;2022-12-07T14:48:13;76.80;;;34.00;;
73593;SDS011;64760;53.404;23.498;2022-12-07T14:50:45;36.35;;;20.15;;
73593;SDS011;64760;53.404;23.498;2022-12-07T14:53:16;41.83;;;24.33;;
73593;SDS011;64760;53.404;23.498;2022-12-07T14:55:45;24.75;;;13.43;;
73593;SDS011;64760;53.404;23.498;2022-12-07T14:58:12;18.75;;;9.98;;
73593;SDS011;64760;53.404;23.498;2022-12-07T15:00:40;14.32;;;9.93;;
73593;SDS011;64760;53.404;23.498;2022-12-07T15:03:07;27.75;;;14.43;;
73593;SDS011;64760;53.404;23.498;2022-12-07T15:05:34;30.85;;;15.02;;
73593;SDS011;64760;53.404;23.498;2022-12-07T15:08:01;36.17;;;19.80;;
73593;SDS011;64760;53.404;23.498;2022-12-07T15:10:28;57.28;;;30.67;;
73593;SDS011;64760;53.404;23.498;2022-12-07T15:12:57;89.40;;;50.08;;
73593;SDS011;64760;53.404;23.498;2022-12-07T15:15:44;46.28;;;24.48;;
73593;SDS011;64760;53.404;23.498;2022-12-07T15:18:10;25.23;;;15.82;;
73593;SDS011;64760;53.404;23.498;2022-12-07T15:20:37;90.13;;;44.80;;
73593;SDS011;64760;53.404;23.498;2022-12-07T15:23:03;46.20;;;24.77;;
73593;SDS011;64760;53.404;23.498;2022-12-07T15:25:30;51.60;;;23.05;;
73593;SDS011;64760;53.404;23.498;2022-12-07T15:27:56;74.05;;;35.33;;
73593;SDS011;64760;53.404;23.498;2022-12-07T15:30:22;38.35;;;20.42;;
73593;SDS011;64760;53.404;23.498;2022-12-07T15:32:49;36.25;;;18.52;;
73593;SDS011;64760;53.404;23.498;2022-12-07T15:35:16;34.33;;;19.27;;
73593;SDS011;64760;53.404;23.498;2022-12-07T15:37:42;37.58;;;23.45;;
73593;SDS011;64760;53.404;23.498;2022-12-07T15:40:09;35.47;;;20.75;;
73593;SDS011;64760;53.404;23.498;2022-12-07T15:42:36;33.85;;;16.05;;
73593;SDS011;64760;53.404;23.498;2022-12-07T15:45:03;70.43;;;31.30;;
73593;SDS011;64760;53.404;23.498;2022-12-07T15:47:37;22.17;;;13.10;;
73593;SDS011;64760;53.404;23.498;2022-12-07T15:50:10;33.45;;;17.38;;
73593;SDS011;64760;53.404;23.498;2022-12-07T15:52:38;33.88;;;17.98;;
73593;SDS011;64760;53.404;23.498;2022-12-07T15:55:05;30.95;;;18.70;;
73593;SDS011;64760;53.404;23.498;2022-12-07T15:57:32;27.48;;;15.40;;
73593;SDS011;64760;53.404;23.498;2022-12-07T15:59:59;20.08;;;12.63;;
73593;SDS011;64760;53.404;23.498;2022-12-07T16:02:25;34.88;;;17.25;;
73593;SDS011;64760;53.404;23.498;2022-12-07T16:04:52;25.75;;;13.50;;
73593;SDS011;64760;53.404;23.498;2022-12-07T16:07:18;22.83;;;11.52;;
73593;SDS011;64760;53.404;23.498;2022-12-07T16:09:45;53.78;;;27.73;;
73593;SDS011;64760;53.404;23.498;2022-12-07T16:12:12;26.83;;;12.75;;
73593;SDS011;64760;53.404;23.498;2022-12-07T16:14:39;53.85;;;27.38;;
73593;SDS011;64760;53.404;23.498;2022-12-07T16:17:07;48.67;;;25.13;;
73593;SDS011;64760;53.404;23.498;2022-12-07T16:19:35;68.05;;;28.23;;
73593;SDS011;64760;53.404;23.498;2022-12-07T16:22:02;28.25;;;12.55;;
73593;SDS011;64760;53.404;23.498;2022-12-07T16:24:30;26.38;;;12.30;;
73593;SDS011;64760;53.404;23.498;2022-12-07T16:26:57;37.47;;;20.38;;
73593;SDS011;64760;53.404;23.498;2022-12-07T16:29:23;36.83;;;19.02;;
73593;SDS011;64760;53.404;23.498;2022-12-07T16:31:50;26.17;;;13.13;;
73593;SDS011;64760;53.404;23.498;2022-12-07T16:34:17;40.60;;;19.00;;
73593;SDS011;64760;53.404;23.498;2022-12-07T16:36:44;22.75;;;11.75;;
73593;SDS011;64760;53.404;23.498;2022-12-07T16:39:10;29.27;;;15.15;;
73593;SDS011;64760;53.404;23.498;2022-12-07T16:41:37;62.28;;;34.72;;
73593;SDS011;64760;53.404;23.498;2022-12-07T16:44:07;31.65;;;14.10;;
73593;SDS011;64760;53.404;23.498;2022-12-07T16:46:35;21.48;;;12.65;;
73593;SDS011;64760;53.404;23.498;2022-12-07T16:49:02;21.70;;;12.50;;
73593;SDS011;64760;53.404;23.498;2022-12-07T16:51:29;22.40;;;14.20;;
73593;SDS011;64760;53.404;23.498;2022-12-07T16:53:56;66.15;;;27.30;;
73593;SDS011;64760;53.404;23.498;2022-12-07T16:56:23;55.15;;;25.52;;
73593;SDS011;64760;53.404;23.498;2022-12-07T16:58:50;47.10;;;20.25;;
73593;SDS011;64760;53.404;23.498;2022-12-07T17:01:17;87.88;;;35.90;;
73593;SDS011;64760;53.404;23.498;2022-12-07T17:03:48;49.72;;;23.55;;
73593;SDS011;64760;53.404;23.498;2022-12-07T17:06:15;57.45;;;25.35;;
73593;SDS011;64760;53.404;23.498;2022-12-07T17:08:46;47.47;;;21.77;;
73593;SDS011;64760;53.404;23.498;2022-12-07T17:11:14;72.43;;;31.45;;
73593;SDS011;64760;53.404;23.498;2022-12-07T17:13:43;67.22;;;31.35;;
73593;SDS011;64760;53.404;23.498;2022-12-07T17:16:28;37.08;;;16.83;;
73593;SDS011;64760;53.404;23.498;2022-12-07T17:18:57;30.58;;;15.10;;
73593;SDS011;64760;53.404;23.498;2022-12-07T17:21:23;25.60;;;12.38;;
73593;SDS011;64760;53.404;23.498;2022-12-07T17:23:50;15.88;;;6.97;;
73593;SDS011;64760;53.404;23.498;2022-12-07T17:26:21;26.50;;;13.00;;
73593;SDS011;64760;53.404;23.498;2022-12-07T17:28:49;25.55;;;12.57;;
73593;SDS011;64760;53.404;23.498;2022-12-07T17:31:16;45.65;;;21.35;;
73593;SDS011;64760;53.404;23.498;2022-12-07T17:33:44;39.28;;;16.67;;
73593;SDS011;64760;53.404;23.498;2022-12-07T17:38:37;42.55;;;19.50;;
73593;SDS011;64760;53.404;23.498;2022-12-07T17:41:10;20.50;;;11.00;;
73593;SDS011;64760;53.404;23.498;2022-12-07T17:43:38;25.38;;;12.57;;
73593;SDS011;64760;53.404;23.498;2022-12-07T17:46:09;20.10;;;11.00;;
73593;SDS011;64760;53.404;23.498;2022-12-07T17:48:36;25.15;;;10.20;;
73593;SDS011;64760;53.404;23.498;2022-12-07T17:51:02;26.05;;;12.65;;